< Typhoon 196811 1968 Season Typhoon 196813 >
Typhoon 196812 (WENDY)
General InformationTrack Information on Google Maps || Disaster Info.ResourceGoogle EarthGE AnimationAtom FeedGeoJSON
Detalied Best Track (Time Zone = UTC)
Year Month Day Hour Lat. Long. Pressure (hPa) Wind (kt) Class Image Chart
1968 8 27 00 15.4 150.7 1004 0 2 -- Chart
1968 8 27 06 15.5 150.5 1000 0 2 -- Chart
1968 8 27 12 15.6 150.3 1000 0 2 -- Chart
1968 8 27 18 15.7 150.0 996 0 9 -- Chart
1968 8 28 00 16.0 149.6 992 0 9 -- Chart
1968 8 28 06 16.1 148.8 990 0 9 -- Chart
1968 8 28 12 16.0 147.9 980 0 9 -- Chart
1968 8 28 18 16.1 147.3 975 0 9 -- Chart
1968 8 29 00 16.2 146.6 970 0 9 -- Chart
1968 8 29 06 16.3 146.0 965 0 9 -- Chart
1968 8 29 12 16.4 145.8 960 0 9 -- Chart
1968 8 29 18 17.0 145.8 950 0 9 -- Chart
1968 8 30 00 17.5 145.6 935 0 9 -- Chart
1968 8 30 06 17.7 145.0 925 0 9 -- Chart
1968 8 30 12 18.3 144.4 920 0 9 -- Chart
1968 8 30 18 19.0 144.0 920 0 9 -- Chart
1968 8 31 00 19.4 143.5 920 0 9 -- Chart
1968 8 31 06 19.6 142.8 925 0 9 -- Chart
1968 8 31 12 20.3 141.8 930 0 9 -- Chart
1968 8 31 18 21.0 140.5 930 0 9 -- Chart
1968 9 1 00 21.3 139.2 935 0 9 -- Chart
1968 9 1 06 21.6 138.0 940 0 9 -- Chart
1968 9 1 12 21.9 136.7 940 0 9 -- Chart
1968 9 1 18 22.2 135.4 940 0 9 -- Chart
1968 9 2 00 22.4 134.0 940 0 9 -- Chart
1968 9 2 06 22.7 132.5 935 0 9 -- Chart
1968 9 2 12 22.9 130.8 945 0 9 -- Chart
1968 9 2 18 23.0 129.4 945 0 9 -- Chart
1968 9 3 00 22.9 128.3 945 0 9 -- Chart
1968 9 3 06 22.5 127.0 945 0 9 -- Chart
1968 9 3 12 22.2 126.0 940 0 9 -- Chart
1968 9 3 18 21.9 124.9 945 0 9 -- Chart
1968 9 4 00 21.6 124.1 950 0 9 -- Chart
1968 9 4 06 21.5 123.5 950 0 9 -- Chart
1968 9 4 12 21.4 123.1 965 0 9 -- Chart
1968 9 4 18 21.6 122.5 970 0 9 -- Chart
1968 9 5 00 21.6 122.2 970 0 9 -- Chart
1968 9 5 06 21.6 121.6 970 0 9 -- Chart
1968 9 5 12 21.8 121.4 975 0 9 -- Chart
1968 9 5 18 21.7 121.0 975 0 9 -- Chart
1968 9 6 00 21.7 120.6 970 0 9 -- Chart
1968 9 6 06 21.9 120.2 975 0 9 -- Chart
1968 9 6 12 22.0 119.9 975 0 9 -- Chart
1968 9 6 18 22.0 119.3 975 0 9 -- Chart
1968 9 7 00 22.0 118.8 980 0 9 -- Chart
1968 9 7 06 22.0 118.2 980 0 9 -- Chart
1968 9 7 12 21.9 117.0 980 0 9 -- Chart
1968 9 7 18 21.7 115.7 980 0 9 -- Chart
1968 9 8 00 21.2 114.5 985 0 9 -- Chart
1968 9 8 06 21.2 113.3 990 0 9 -- Chart
1968 9 8 12 21.2 111.6 990 0 9 -- Chart
1968 9 8 18 20.9 109.7 992 0 9 -- Chart
1968 9 9 00 20.8 108.4 994 0 9 -- Chart
1968 9 9 06 20.8 107.0 996 0 2 -- Chart
1968 9 9 12 21.0 105.3 996 0 2 -- Chart
1968 9 9 18 21.1 104.0 1000 0 2 -- Chart
1968 9 10 00 21.1 102.6 1002 0 2 -- Chart
1968 9 10 06 21.0 102.7 1002 0 2 -- Chart
Japan Meteorological Agency Best Track Data | Correction Date : 1989-06-01
< Typhoon 196811 1968 Season Typhoon 196813 >

Help